Time;durP1;ratioP1;P1;durP2;ratioP2;P2;SDS_P1;SDS_P2;PMS_P1;PMS_P2;Temp;Humidity;BMP_temperature;BMP_pressure;BME280_temperature;BME280_humidity;BME280_pressure;Samples;Min_cycle;Max_cycle;Signal;HPM_P1;HPM_P2
2024/01/19 00:01:14;;;;;;;27.75;10.60;;;;;;;;;;4965781;28;20105;-71
2024/01/19 00:03:39;;;;;;;29.20;9.70;;;;;;;;;;4967555;28;20074;-70
2024/01/19 00:06:05;;;;;;;30.65;10.82;;;;;;;;;;4967495;28;20073;-71
2024/01/19 00:08:30;;;;;;;28.52;11.70;;;;;;;;;;5005647;28;20022;-70
2024/01/19 00:10:55;;;;;;;51.50;12.02;;;;;;;;;;5005305;28;20048;-71
2024/01/19 00:13:21;;;;;;;33.47;11.30;;;;;;;;;;4984685;28;20133;-71
2024/01/19 00:15:46;;;;;;;27.67;10.15;;;;;;;;;;4984643;28;20589;-70
2024/01/19 00:18:11;;;;;;;23.20;8.73;;;;;;;;;;4984498;28;20405;-71
2024/01/19 00:20:37;;;;;;;27.02;10.30;;;;;;;;;;4986802;28;20033;-71
2024/01/19 00:23:03;;;;;;;27.13;10.48;;;;;;;;;;4985980;28;20045;-71
2024/01/19 00:25:28;;;;;;;28.02;9.90;;;;;;;;;;4992365;28;20111;-70
2024/01/19 00:27:54;;;;;;;27.75;10.07;;;;;;;;;;5002674;28;20046;-71
2024/01/19 00:30:19;;;;;;;27.63;10.38;;;;;;;;;;5002747;28;20061;-71
2024/01/19 00:32:44;;;;;;;25.65;9.52;;;;;;;;;;5003068;28;20092;-71
2024/01/19 00:35:10;;;;;;;51.42;11.18;;;;;;;;;;5003140;28;20042;-71
2024/01/19 00:37:35;;;;;;;30.95;10.18;;;;;;;;;;4996651;28;20045;-71
2024/01/19 00:40:01;;;;;;;30.90;10.93;;;;;;;;;;5011735;28;20096;-70
2024/01/19 00:42:26;;;;;;;40.78;10.95;;;;;;;;;;5011924;28;20113;-71
2024/01/19 00:44:52;;;;;;;38.20;9.93;;;;;;;;;;5006419;28;20030;-70
2024/01/19 00:47:18;;;;;;;34.10;11.13;;;;;;;;;;5010680;28;20048;-71
2024/01/19 00:49:43;;;;;;;38.00;11.35;;;;;;;;;;5021447;28;20034;-71
2024/01/19 00:52:08;;;;;;;32.30;12.18;;;;;;;;;;5020580;28;20049;-71
2024/01/19 00:54:34;;;;;;;28.67;10.57;;;;;;;;;;5021647;28;20040;-71
2024/01/19 00:57:00;;;;;;;29.83;10.35;;;;;;;;;;5021039;28;20030;-71
2024/01/19 00:59:25;;;;;;;33.60;11.18;;;;;;;;;;5022946;28;20045;-71
2024/01/19 01:01:51;;;;;;;31.23;11.48;;;;;;;;;;5021708;28;20123;-71
2024/01/19 01:04:16;;;;;;;32.90;11.18;;;;;;;;;;5021493;28;20045;-71
2024/01/19 01:06:42;;;;;;;57.90;11.32;;;;;;;;;;5024927;28;20079;-71
2024/01/19 01:09:07;;;;;;;43.15;11.98;;;;;;;;;;5039804;28;20032;-71
2024/01/19 01:11:32;;;;;;;63.30;11.07;;;;;;;;;;5042079;28;20044;-70
2024/01/19 01:13:58;;;;;;;63.33;11.38;;;;;;;;;;5040890;28;20038;-71
2024/01/19 01:16:26;;;;;;;35.20;10.95;;;;;;;;;;5041053;28;20111;-71
2024/01/19 01:18:51;;;;;;;28.52;10.75;;;;;;;;;;5042191;28;20029;-71
2024/01/19 01:21:17;;;;;;;25.02;9.45;;;;;;;;;;5040279;28;20124;-71
2024/01/19 01:23:42;;;;;;;42.05;10.98;;;;;;;;;;5042694;28;20029;-72
2024/01/19 01:26:07;;;;;;;31.85;11.25;;;;;;;;;;5040512;28;20054;-71
2024/01/19 01:28:33;;;;;;;22.05;8.60;;;;;;;;;;5040924;28;20048;-71
2024/01/19 01:30:58;;;;;;;24.77;9.73;;;;;;;;;;5012511;28;20097;-72
2024/01/19 01:33:24;;;;;;;34.95;10.00;;;;;;;;;;4998547;28;20046;-71
2024/01/19 01:35:49;;;;;;;26.58;10.85;;;;;;;;;;4983558;28;20039;-72
2024/01/19 01:38:14;;;;;;;27.25;10.70;;;;;;;;;;5005168;28;20181;-71
2024/01/19 01:40:41;;;;;;;37.05;10.57;;;;;;;;;;4986223;28;20046;-70
2024/01/19 01:43:07;;;;;;;33.03;9.88;;;;;;;;;;4986179;28;20051;-70
2024/01/19 01:45:33;;;;;;;47.13;10.57;;;;;;;;;;4981023;28;20070;-71
2024/01/19 01:47:59;;;;;;;26.90;9.98;;;;;;;;;;4982346;28;20291;-69
2024/01/19 01:50:24;;;;;;;32.78;11.70;;;;;;;;;;4984455;28;20151;-71
2024/01/19 01:52:54;;;;;;;30.50;10.18;;;;;;;;;;4983306;28;20039;-71
2024/01/19 01:55:20;;;;;;;27.88;10.40;;;;;;;;;;4981219;28;20066;-72
2024/01/19 01:57:46;;;;;;;30.50;10.40;;;;;;;;;;4981434;28;20809;-71
2024/01/19 02:00:14;;;;;;;33.50;9.80;;;;;;;;;;4980610;28;20676;-71
2024/01/19 02:02:40;;;;;;;40.33;11.40;;;;;;;;;;4982539;28;20150;-72
2024/01/19 02:05:06;;;;;;;36.38;9.93;;;;;;;;;;4981776;28;20046;-71
2024/01/19 02:07:32;;;;;;;37.28;9.88;;;;;;;;;;5002018;28;20058;-71
2024/01/19 02:09:58;;;;;;;88.03;13.02;;;;;;;;;;5018964;28;20098;-71
2024/01/19 02:12:23;;;;;;;103.50;12.35;;;;;;;;;;5024532;28;20084;-70
2024/01/19 02:14:49;;;;;;;56.58;11.90;;;;;;;;;;5040837;28;20037;-71
2024/01/19 02:17:14;;;;;;;40.33;11.60;;;;;;;;;;5040242;28;20060;-71
2024/01/19 02:19:39;;;;;;;92.25;11.98;;;;;;;;;;5040074;28;20045;-71
2024/01/19 02:22:05;;;;;;;40.40;11.13;;;;;;;;;;5040480;28;20048;-71
2024/01/19 02:24:35;;;;;;;67.18;11.70;;;;;;;;;;5040762;28;20041;-70
2024/01/19 02:27:02;;;;;;;25.05;9.70;;;;;;;;;;5040806;28;20024;-71
2024/01/19 02:29:27;;;;;;;64.32;11.00;;;;;;;;;;5040481;28;20021;-71
2024/01/19 02:31:52;;;;;;;31.77;10.65;;;;;;;;;;5040363;28;20052;-70
2024/01/19 02:34:18;;;;;;;64.35;11.38;;;;;;;;;;5040619;28;20045;-71
2024/01/19 02:36:43;;;;;;;32.55;11.52;;;;;;;;;;5030391;28;20072;-71
2024/01/19 02:39:09;;;;;;;74.40;13.43;;;;;;;;;;4998655;28;20026;-71
2024/01/19 02:41:34;;;;;;;63.65;11.25;;;;;;;;;;4985262;28;20048;-71
2024/01/19 02:44:00;;;;;;;36.45;9.98;;;;;;;;;;4983898;28;20038;-71
2024/01/19 02:46:25;;;;;;;108.75;12.93;;;;;;;;;;4988160;28;20034;-71
2024/01/19 02:48:51;;;;;;;63.83;13.75;;;;;;;;;;4985391;28;20027;-71
2024/01/19 02:51:16;;;;;;;87.72;14.35;;;;;;;;;;4986219;28;20035;-71
2024/01/19 02:53:41;;;;;;;98.65;13.38;;;;;;;;;;4986615;28;20097;-71
2024/01/19 02:56:07;;;;;;;117.45;15.43;;;;;;;;;;4985063;28;20030;-71
2024/01/19 02:58:32;;;;;;;89.28;14.18;;;;;;;;;;4984000;28;20034;-71
2024/01/19 03:00:59;;;;;;;51.53;13.52;;;;;;;;;;4983916;28;20070;-71
2024/01/19 03:03:25;;;;;;;74.25;15.00;;;;;;;;;;4983174;28;20031;-70
2024/01/19 03:05:50;;;;;;;108.10;16.08;;;;;;;;;;4986127;28;20118;-71
2024/01/19 03:08:16;;;;;;;124.28;16.80;;;;;;;;;;5020161;28;20041;-71
2024/01/19 03:10:41;;;;;;;117.57;19.08;;;;;;;;;;5038483;28;20126;-70
2024/01/19 03:13:06;;;;;;;60.67;13.50;;;;;;;;;;5041998;28;20060;-71
2024/01/19 03:15:32;;;;;;;103.43;15.13;;;;;;;;;;5043395;28;20049;-71
2024/01/19 03:17:57;;;;;;;125.95;16.65;;;;;;;;;;5044320;28;20060;-71
2024/01/19 03:20:23;;;;;;;107.72;17.20;;;;;;;;;;5043923;28;20028;-71
2024/01/19 03:22:48;;;;;;;55.35;12.75;;;;;;;;;;5021633;28;20077;-72
2024/01/19 03:25:13;;;;;;;71.97;11.95;;;;;;;;;;5003363;28;20058;-71
2024/01/19 03:27:39;;;;;;;40.25;12.68;;;;;;;;;;4998119;28;20035;-71
2024/01/19 03:30:05;;;;;;;86.75;13.00;;;;;;;;;;4984827;28;20082;-71
2024/01/19 03:32:31;;;;;;;76.38;16.20;;;;;;;;;;5004638;28;20057;-71
2024/01/19 03:34:56;;;;;;;76.35;12.27;;;;;;;;;;4986074;28;20035;-72
2024/01/19 03:37:21;;;;;;;59.97;14.82;;;;;;;;;;5003965;28;20049;-71
2024/01/19 03:39:47;;;;;;;43.22;12.65;;;;;;;;;;4997052;28;20111;-70
2024/01/19 03:42:12;;;;;;;68.63;11.32;;;;;;;;;;4984141;28;20054;-71
2024/01/19 03:44:40;;;;;;;54.63;11.63;;;;;;;;;;4983951;28;20032;-70
2024/01/19 03:47:05;;;;;;;51.47;10.23;;;;;;;;;;4981424;28;20034;-71
2024/01/19 03:49:30;;;;;;;40.03;14.23;;;;;;;;;;4982477;28;20041;-71
2024/01/19 03:52:04;;;;;;;63.63;14.15;;;;;;;;;;4985639;28;20039;-73
2024/01/19 03:54:32;;;;;;;71.15;12.55;;;;;;;;;;4982218;28;20065;-71
2024/01/19 03:56:59;;;;;;;53.10;12.48;;;;;;;;;;4982177;28;20019;-71
2024/01/19 03:59:24;;;;;;;53.08;12.00;;;;;;;;;;4984062;28;20033;-72
2024/01/19 04:01:51;;;;;;;83.65;14.82;;;;;;;;;;4983798;28;20035;-71
2024/01/19 04:04:16;;;;;;;70.45;15.18;;;;;;;;;;4984315;28;20050;-70
2024/01/19 04:06:42;;;;;;;58.60;13.88;;;;;;;;;;4992920;28;20042;-72
2024/01/19 04:09:08;;;;;;;65.00;13.10;;;;;;;;;;5022407;28;20678;-72
2024/01/19 04:11:35;;;;;;;63.80;12.25;;;;;;;;;;5022723;28;20028;-71
2024/01/19 04:14:00;;;;;;;37.75;10.93;;;;;;;;;;5031866;28;20033;-71
2024/01/19 04:16:26;;;;;;;56.00;12.27;;;;;;;;;;5015592;28;20050;-71
2024/01/19 04:18:51;;;;;;;93.47;18.45;;;;;;;;;;5002999;28;20031;-71
2024/01/19 04:21:16;;;;;;;68.90;17.30;;;;;;;;;;5001632;28;20065;-71
2024/01/19 04:23:44;;;;;;;62.58;14.43;;;;;;;;;;5003116;28;20019;-71
2024/01/19 04:26:10;;;;;;;59.42;13.80;;;;;;;;;;5003722;28;20037;-72
2024/01/19 04:28:36;;;;;;;57.30;13.52;;;;;;;;;;4999747;28;20038;-71
2024/01/19 04:31:01;;;;;;;57.83;13.68;;;;;;;;;;5003378;28;20039;-71
2024/01/19 04:33:26;;;;;;;79.97;16.50;;;;;;;;;;5003987;28;20034;-71
2024/01/19 04:35:52;;;;;;;47.92;12.75;;;;;;;;;;5002682;28;20045;-70
2024/01/19 04:38:17;;;;;;;39.03;13.43;;;;;;;;;;4988977;28;20045;-70
2024/01/19 04:40:43;;;;;;;64.72;14.55;;;;;;;;;;4995944;28;20058;-69
2024/01/19 04:43:08;;;;;;;52.38;15.80;;;;;;;;;;5001894;28;20410;-71
2024/01/19 04:45:34;;;;;;;80.45;16.60;;;;;;;;;;5003434;28;20035;-72
2024/01/19 04:47:59;;;;;;;82.93;18.73;;;;;;;;;;5002242;28;20084;-71
2024/01/19 04:50:25;;;;;;;74.35;18.00;;;;;;;;;;5000399;28;20133;-71
2024/01/19 04:52:50;;;;;;;94.85;21.35;;;;;;;;;;5001414;28;20054;-71
2024/01/19 04:55:15;;;;;;;83.57;15.00;;;;;;;;;;5006629;28;20084;-71
2024/01/19 04:57:41;;;;;;;78.65;16.42;;;;;;;;;;5001041;28;20038;-72
2024/01/19 05:00:07;;;;;;;78.93;14.30;;;;;;;;;;5001650;28;20033;-72
2024/01/19 05:02:32;;;;;;;118.50;19.17;;;;;;;;;;5001633;28;20018;-71
2024/01/19 05:04:59;;;;;;;93.43;17.45;;;;;;;;;;5000953;28;20057;-73
2024/01/19 05:07:26;;;;;;;127.22;18.45;;;;;;;;;;5021707;28;20124;-71
2024/01/19 05:09:52;;;;;;;65.18;13.40;;;;;;;;;;5040244;28;20056;-71
2024/01/19 05:12:17;;;;;;;134.95;17.08;;;;;;;;;;5041694;28;20037;-71
2024/01/19 05:14:43;;;;;;;102.05;18.05;;;;;;;;;;5041437;28;20052;-70
2024/01/19 05:17:08;;;;;;;74.13;15.18;;;;;;;;;;5040661;28;20044;-71
2024/01/19 05:19:34;;;;;;;54.08;13.98;;;;;;;;;;5041233;28;20060;-72
2024/01/19 05:21:59;;;;;;;48.80;12.65;;;;;;;;;;5041111;28;20029;-70
2024/01/19 05:24:24;;;;;;;36.03;14.02;;;;;;;;;;5040630;28;20040;-70
2024/01/19 05:26:50;;;;;;;34.53;13.57;;;;;;;;;;5042432;28;20030;-71
2024/01/19 05:29:16;;;;;;;41.88;14.35;;;;;;;;;;5039295;28;20045;-71
2024/01/19 05:31:41;;;;;;;110.72;14.10;;;;;;;;;;5040374;28;20060;-70
2024/01/19 05:34:06;;;;;;;42.30;13.75;;;;;;;;;;5041962;28;20041;-72
2024/01/19 05:36:32;;;;;;;77.80;13.73;;;;;;;;;;5034243;28;20096;-71
2024/01/19 05:38:57;;;;;;;46.25;15.63;;;;;;;;;;5002944;28;20056;-71
2024/01/19 05:41:23;;;;;;;36.65;13.48;;;;;;;;;;4983374;28;20573;-71
2024/01/19 05:43:49;;;;;;;49.50;14.50;;;;;;;;;;4982459;28;20062;-71
2024/01/19 05:46:14;;;;;;;52.75;12.55;;;;;;;;;;4982312;28;20042;-71
2024/01/19 05:48:40;;;;;;;53.35;14.30;;;;;;;;;;4984032;28;20042;-71
2024/01/19 05:51:13;;;;;;;56.63;11.88;;;;;;;;;;4982508;28;20034;-71
2024/01/19 05:53:38;;;;;;;37.40;13.73;;;;;;;;;;4980415;28;20027;-71
2024/01/19 05:56:04;;;;;;;32.08;12.95;;;;;;;;;;4979481;28;20043;-71
2024/01/19 05:58:30;;;;;;;34.63;13.68;;;;;;;;;;4980148;28;20180;-72
2024/01/19 06:00:55;;;;;;;38.10;13.43;;;;;;;;;;4984460;28;20039;-71
2024/01/19 06:03:21;;;;;;;37.45;12.20;;;;;;;;;;4982085;28;20035;-71
2024/01/19 06:05:46;;;;;;;40.00;13.18;;;;;;;;;;4981920;28;20026;-71
2024/01/19 06:08:12;;;;;;;90.57;15.98;;;;;;;;;;5015803;28;20408;-71
2024/01/19 06:10:38;;;;;;;45.60;14.73;;;;;;;;;;5019309;28;20038;-70
2024/01/19 06:13:03;;;;;;;57.83;12.32;;;;;;;;;;4994586;28;20047;-71
2024/01/19 06:15:29;;;;;;;41.60;14.88;;;;;;;;;;4999421;28;20047;-71
2024/01/19 06:17:54;;;;;;;40.60;14.25;;;;;;;;;;4986822;28;20027;-70
2024/01/19 06:20:20;;;;;;;38.88;14.68;;;;;;;;;;5001049;28;20038;-72
2024/01/19 06:22:45;;;;;;;46.28;16.20;;;;;;;;;;4985543;28;20057;-70
2024/01/19 06:25:11;;;;;;;32.05;12.77;;;;;;;;;;4985554;28;20034;-70
2024/01/19 06:27:37;;;;;;;44.10;15.40;;;;;;;;;;4984373;28;20046;-71
2024/01/19 06:30:03;;;;;;;34.92;14.45;;;;;;;;;;4984349;28;20027;-71
2024/01/19 06:32:30;;;;;;;44.92;15.18;;;;;;;;;;5001565;28;20038;-70
2024/01/19 06:34:55;;;;;;;43.80;13.38;;;;;;;;;;5000498;28;20031;-71
2024/01/19 06:37:21;;;;;;;42.03;14.05;;;;;;;;;;5004998;28;20041;-71
2024/01/19 06:39:46;;;;;;;34.75;14.38;;;;;;;;;;4998300;28;20042;-71
2024/01/19 06:42:13;;;;;;;46.67;16.38;;;;;;;;;;4984542;28;20065;-71
2024/01/19 06:44:42;;;;;;;42.85;14.30;;;;;;;;;;4985446;28;20427;-71
2024/01/19 06:47:07;;;;;;;33.33;13.57;;;;;;;;;;4982946;28;20121;-72
2024/01/19 06:49:33;;;;;;;48.08;15.45;;;;;;;;;;4984754;28;20043;-73
2024/01/19 06:51:59;;;;;;;38.63;14.30;;;;;;;;;;4985572;28;20046;-71
2024/01/19 06:54:25;;;;;;;42.00;16.17;;;;;;;;;;4983125;28;20163;-72
2024/01/19 06:56:50;;;;;;;33.95;14.13;;;;;;;;;;4976796;28;20069;-71
2024/01/19 06:59:16;;;;;;;32.10;13.98;;;;;;;;;;4992044;28;20042;-71
2024/01/19 07:01:41;;;;;;;36.72;16.08;;;;;;;;;;4990143;28;20556;-71
2024/01/19 07:04:06;;;;;;;36.72;14.48;;;;;;;;;;4990140;28;20187;-71
2024/01/19 07:06:33;;;;;;;36.78;13.95;;;;;;;;;;5008425;28;20063;-71
2024/01/19 07:08:59;;;;;;;34.30;12.60;;;;;;;;;;5026843;28;20030;-71
2024/01/19 07:11:24;;;;;;;28.15;11.93;;;;;;;;;;5027351;28;20025;-71
2024/01/19 07:13:50;;;;;;;27.67;12.40;;;;;;;;;;5025393;28;20076;-71
2024/01/19 07:16:15;;;;;;;31.63;12.27;;;;;;;;;;5026706;28;20095;-71
2024/01/19 07:18:40;;;;;;;26.95;12.18;;;;;;;;;;5027203;28;20396;-71
2024/01/19 07:21:06;;;;;;;38.92;16.67;;;;;;;;;;5027095;28;20485;-71
2024/01/19 07:23:31;;;;;;;32.25;11.70;;;;;;;;;;5024520;28;20078;-71
2024/01/19 07:25:56;;;;;;;34.88;15.15;;;;;;;;;;5001838;28;20076;-71
2024/01/19 07:28:22;;;;;;;56.03;27.55;;;;;;;;;;4994354;28;20047;-71
2024/01/19 07:30:47;;;;;;;27.80;13.73;;;;;;;;;;4988947;28;20046;-71
2024/01/19 07:33:13;;;;;;;24.73;12.13;;;;;;;;;;4997520;28;20050;-71
2024/01/19 07:35:39;;;;;;;41.08;20.05;;;;;;;;;;5005954;28;20018;-70
2024/01/19 07:38:04;;;;;;;31.27;14.93;;;;;;;;;;4995271;28;20073;-71
2024/01/19 07:40:29;;;;;;;21.10;10.02;;;;;;;;;;4974709;28;20058;-71
2024/01/19 07:42:55;;;;;;;20.42;11.00;;;;;;;;;;4980765;28;20424;-70
2024/01/19 07:45:20;;;;;;;23.00;10.70;;;;;;;;;;4994270;28;20034;-71
2024/01/19 07:47:45;;;;;;;26.33;13.10;;;;;;;;;;4989348;28;20045;-71
2024/01/19 07:50:11;;;;;;;37.10;16.25;;;;;;;;;;4984618;28;20160;-71
2024/01/19 07:52:38;;;;;;;23.70;10.30;;;;;;;;;;4974469;28;20129;-71
2024/01/19 07:55:03;;;;;;;26.55;11.82;;;;;;;;;;4986221;28;20038;-71
2024/01/19 07:57:29;;;;;;;25.67;10.95;;;;;;;;;;4977065;28;20039;-71
2024/01/19 07:59:54;;;;;;;28.13;11.45;;;;;;;;;;4984637;28;20026;-70
2024/01/19 08:02:20;;;;;;;38.22;14.93;;;;;;;;;;4983648;28;20081;-71
2024/01/19 08:04:46;;;;;;;28.38;11.13;;;;;;;;;;4983110;28;20045;-70
2024/01/19 08:07:12;;;;;;;30.98;11.55;;;;;;;;;;4994625;28;20026;-71
2024/01/19 08:09:37;;;;;;;23.40;8.52;;;;;;;;;;5004877;28;20128;-71
2024/01/19 08:12:03;;;;;;;22.10;10.57;;;;;;;;;;4987518;28;20416;-73
2024/01/19 08:14:28;;;;;;;21.42;10.00;;;;;;;;;;5003565;28;20021;-72
2024/01/19 08:16:54;;;;;;;22.73;10.02;;;;;;;;;;5003312;28;20042;-73
2024/01/19 08:19:19;;;;;;;20.30;9.05;;;;;;;;;;5005052;28;20048;-73
2024/01/19 08:21:45;;;;;;;21.75;9.85;;;;;;;;;;4997166;28;20034;-73
2024/01/19 08:24:12;;;;;;;19.02;10.48;;;;;;;;;;4985096;28;20515;-72
2024/01/19 08:26:38;;;;;;;19.55;9.05;;;;;;;;;;4988168;28;20046;-73
2024/01/19 08:29:03;;;;;;;28.83;11.68;;;;;;;;;;4986768;28;20077;-72
2024/01/19 08:31:30;;;;;;;26.70;12.25;;;;;;;;;;4992492;28;20049;-72
2024/01/19 08:33:56;;;;;;;22.70;10.02;;;;;;;;;;4986675;28;20054;-73
2024/01/19 08:36:24;;;;;;;31.88;9.73;;;;;;;;;;4990837;28;20058;-73
2024/01/19 08:38:53;;;;;;;27.63;11.45;;;;;;;;;;4987760;28;20403;-73
2024/01/19 08:41:18;;;;;;;26.13;11.18;;;;;;;;;;5001341;28;20049;-73
2024/01/19 08:43:44;;;;;;;27.80;10.55;;;;;;;;;;4996097;28;20026;-72
2024/01/19 08:46:09;;;;;;;31.25;12.75;;;;;;;;;;4993626;28;20123;-73
2024/01/19 08:48:34;;;;;;;26.60;11.77;;;;;;;;;;4993204;28;20412;-72
2024/01/19 08:51:01;;;;;;;26.08;11.48;;;;;;;;;;4987651;28;20026;-73
2024/01/19 08:53:29;;;;;;;21.67;10.52;;;;;;;;;;4995677;28;20025;-73
2024/01/19 08:55:54;;;;;;;29.58;13.18;;;;;;;;;;4969420;28;20042;-72
2024/01/19 08:58:20;;;;;;;25.17;10.30;;;;;;;;;;4988074;28;20042;-71
2024/01/19 09:00:46;;;;;;;29.77;12.10;;;;;;;;;;5001527;28;20030;-71
2024/01/19 09:03:11;;;;;;;34.58;12.38;;;;;;;;;;4994017;28;20041;-72
2024/01/19 09:05:37;;;;;;;23.35;10.57;;;;;;;;;;4996932;28;20090;-72
2024/01/19 09:08:03;;;;;;;40.00;14.52;;;;;;;;;;4984863;28;20055;-71
2024/01/19 09:10:29;;;;;;;33.47;13.95;;;;;;;;;;4984977;28;20050;-71
2024/01/19 09:12:55;;;;;;;36.03;13.25;;;;;;;;;;4983182;28;20046;-71
2024/01/19 09:15:21;;;;;;;25.33;10.90;;;;;;;;;;4975914;28;20050;-71
2024/01/19 09:17:47;;;;;;;29.15;12.63;;;;;;;;;;4965108;28;20045;-70
2024/01/19 09:20:12;;;;;;;31.60;12.98;;;;;;;;;;4964913;28;20039;-71
2024/01/19 09:22:38;;;;;;;28.38;13.18;;;;;;;;;;4964701;28;20104;-71
2024/01/19 09:25:03;;;;;;;32.00;13.00;;;;;;;;;;4966506;28;20038;-72
2024/01/19 09:27:29;;;;;;;28.40;11.48;;;;;;;;;;4991850;28;20550;-72
2024/01/19 09:29:55;;;;;;;28.85;12.02;;;;;;;;;;5022928;28;20030;-72
2024/01/19 09:32:20;;;;;;;31.35;12.80;;;;;;;;;;5008338;28;20454;-71
2024/01/19 09:34:49;;;;;;;27.85;11.32;;;;;;;;;;5008264;28;21051;-72
2024/01/19 09:37:14;;;;;;;37.63;15.68;;;;;;;;;;5010627;28;20054;-73
2024/01/19 09:39:43;;;;;;;36.55;12.90;;;;;;;;;;5023627;28;20062;-72
2024/01/19 09:42:19;;;;;;;32.15;13.23;;;;;;;;;;5015769;28;20038;-72
2024/01/19 09:44:58;;;;;;;33.90;13.70;;;;;;;;;;4987653;28;20034;-72
2024/01/19 09:47:31;;;;;;;32.92;13.40;;;;;;;;;;4970513;28;20125;-72
2024/01/19 09:50:03;;;;;;;34.00;14.55;;;;;;;;;;4975780;28;20050;-72
2024/01/19 09:52:29;;;;;;;39.33;13.32;;;;;;;;;;4982825;28;20042;-72
2024/01/19 09:54:54;;;;;;;30.63;14.20;;;;;;;;;;4986185;28;20049;-74
2024/01/19 09:57:20;;;;;;;37.25;13.32;;;;;;;;;;4987743;28;20042;-71
2024/01/19 09:59:45;;;;;;;44.85;15.77;;;;;;;;;;4988188;28;20057;-72
2024/01/19 10:02:12;;;;;;;42.75;16.08;;;;;;;;;;4986325;28;20050;-71
2024/01/19 10:04:37;;;;;;;40.95;14.88;;;;;;;;;;4985134;28;20218;-72
2024/01/19 10:07:03;;;;;;;39.50;15.38;;;;;;;;;;5000031;28;20136;-71
2024/01/19 10:09:29;;;;;;;33.60;12.65;;;;;;;;;;5026514;28;20163;-70
2024/01/19 10:11:55;;;;;;;31.30;12.10;;;;;;;;;;5026055;28;20052;-71
2024/01/19 10:14:21;;;;;;;28.98;11.43;;;;;;;;;;5027418;28;20025;-71
2024/01/19 10:16:50;;;;;;;32.30;12.48;;;;;;;;;;5022660;28;20177;-72
2024/01/19 10:19:16;;;;;;;28.95;13.20;;;;;;;;;;5025471;28;20071;-71
2024/01/19 10:21:43;;;;;;;29.00;10.82;;;;;;;;;;5026524;28;20072;-71
2024/01/19 10:24:18;;;;;;;27.40;11.73;;;;;;;;;;5024925;28;20029;-71
2024/01/19 10:26:47;;;;;;;29.45;13.75;;;;;;;;;;5025761;28;20554;-70
2024/01/19 10:29:15;;;;;;;29.63;13.90;;;;;;;;;;5025485;28;20060;-71
2024/01/19 10:31:44;;;;;;;22.00;9.48;;;;;;;;;;5027020;28;20090;-72
2024/01/19 10:34:20;;;;;;;19.67;11.32;;;;;;;;;;5025827;28;20037;-72
2024/01/19 10:36:47;;;;;;;15.90;7.05;;;;;;;;;;5020654;28;20197;-71
2024/01/19 10:39:16;;;;;;;20.85;8.75;;;;;;;;;;4987311;28;20523;-71
2024/01/19 10:41:42;;;;;;;31.45;10.30;;;;;;;;;;4966475;28;20039;-71
2024/01/19 10:44:11;;;;;;;18.35;9.55;;;;;;;;;;4967255;28;20120;-70
2024/01/19 10:46:37;;;;;;;19.58;9.65;;;;;;;;;;4967468;28;20134;-71
2024/01/19 10:49:10;;;;;;;19.15;8.50;;;;;;;;;;4980286;28;20133;-71
2024/01/19 10:51:42;;;;;;;25.73;9.40;;;;;;;;;;4976768;28;20047;-71
2024/01/19 10:54:10;;;;;;;15.25;7.90;;;;;;;;;;4966842;28;20034;-72
2024/01/19 10:56:38;;;;;;;12.38;4.65;;;;;;;;;;4967634;28;20034;-71
2024/01/19 10:59:14;;;;;;;20.55;9.68;;;;;;;;;;4965660;28;20089;-71
2024/01/19 11:01:40;;;;;;;22.58;11.13;;;;;;;;;;4965041;28;20072;-71
2024/01/19 11:04:08;;;;;;;38.97;15.20;;;;;;;;;;4967319;28;20126;-71
2024/01/19 11:06:37;;;;;;;32.75;15.77;;;;;;;;;;4970327;28;20034;-71
2024/01/19 11:09:06;;;;;;;20.00;8.75;;;;;;;;;;4991292;28;20117;-71
2024/01/19 11:11:53;;;;;;;33.55;14.48;;;;;;;;;;4966287;28;20166;-72
2024/01/19 11:14:25;;;;;;;48.58;16.63;;;;;;;;;;4982398;28;20149;-71
2024/01/19 11:16:53;;;;;;;46.25;16.67;;;;;;;;;;4976902;28;20050;-71
2024/01/19 11:19:20;;;;;;;35.72;15.52;;;;;;;;;;4990536;28;20683;-72
2024/01/19 11:21:46;;;;;;;37.42;14.82;;;;;;;;;;4984595;28;20042;-72
2024/01/19 11:24:16;;;;;;;29.95;12.13;;;;;;;;;;4982296;28;20668;-71
2024/01/19 11:26:47;;;;;;;42.20;16.10;;;;;;;;;;4973371;28;20034;-71
2024/01/19 11:29:19;;;;;;;45.00;16.95;;;;;;;;;;4972729;28;20058;-75
2024/01/19 11:31:45;;;;;;;32.00;14.63;;;;;;;;;;4980255;28;20599;-74
2024/01/19 11:34:50;;;;;;;37.13;15.68;;;;;;;;;;4981449;28;20088;-75
2024/01/19 11:37:44;;;;;;;34.67;13.40;;;;;;;;;;4987699;28;20042;-76
2024/01/19 11:40:29;;;;;;;38.80;15.77;;;;;;;;;;4991018;28;20560;-72
2024/01/19 11:42:55;;;;;;;30.75;14.77;;;;;;;;;;5001811;28;20065;-71
2024/01/19 11:45:42;;;;;;;43.70;17.70;;;;;;;;;;5006025;28;20502;-72
2024/01/19 11:48:08;;;;;;;38.78;15.95;;;;;;;;;;5003719;28;20037;-71
2024/01/19 11:50:42;;;;;;;22.00;9.70;;;;;;;;;;5005002;28;20064;-71
2024/01/19 11:53:08;;;;;;;35.15;15.50;;;;;;;;;;5006340;28;20046;-72
2024/01/19 11:55:33;;;;;;;36.22;15.32;;;;;;;;;;5001961;28;20053;-72
2024/01/19 11:58:24;;;;;;;41.85;17.27;;;;;;;;;;5005816;28;20084;-72
2024/01/19 12:00:50;;;;;;;39.53;16.50;;;;;;;;;;5004870;28;20622;-71
2024/01/19 12:03:15;;;;;;;34.75;15.55;;;;;;;;;;5004199;28;20126;-71
2024/01/19 12:05:42;;;;;;;41.10;16.10;;;;;;;;;;5005734;28;20026;-71
2024/01/19 12:08:08;;;;;;;34.10;15.60;;;;;;;;;;4989761;28;20699;-72
2024/01/19 12:10:33;;;;;;;41.10;16.02;;;;;;;;;;4993366;28;20109;-72
2024/01/19 12:12:59;;;;;;;38.58;15.02;;;;;;;;;;4998397;28;20046;-72
2024/01/19 12:15:24;;;;;;;36.72;15.07;;;;;;;;;;5005148;28;20056;-71
2024/01/19 12:17:50;;;;;;;37.80;15.52;;;;;;;;;;5004631;28;20037;-71
2024/01/19 12:20:17;;;;;;;36.63;17.25;;;;;;;;;;5005414;28;20045;-72
2024/01/19 12:22:44;;;;;;;31.27;14.43;;;;;;;;;;5006053;28;20519;-72
2024/01/19 12:25:21;;;;;;;40.10;17.27;;;;;;;;;;4992608;28;20038;-72
2024/01/19 12:27:47;;;;;;;43.97;17.05;;;;;;;;;;4992470;28;20034;-72
2024/01/19 12:30:15;;;;;;;37.38;15.23;;;;;;;;;;4994302;28;20041;-72
2024/01/19 12:32:41;;;;;;;39.85;15.52;;;;;;;;;;5000950;28;20096;-72
2024/01/19 12:35:07;;;;;;;37.17;14.43;;;;;;;;;;4986728;28;20042;-72
2024/01/19 12:37:33;;;;;;;38.95;15.85;;;;;;;;;;4990713;28;20038;-72
2024/01/19 12:40:18;;;;;;;32.45;15.10;;;;;;;;;;4987534;28;20493;-72
2024/01/19 12:42:44;;;;;;;40.67;16.85;;;;;;;;;;5004069;28;20085;-72
2024/01/19 12:45:14;;;;;;;31.05;14.02;;;;;;;;;;5004007;28;20120;-74
2024/01/19 12:47:44;;;;;;;37.45;16.92;;;;;;;;;;5005281;28;20501;-71
2024/01/19 12:50:09;;;;;;;38.55;17.02;;;;;;;;;;5005118;28;20076;-72
2024/01/19 12:52:35;;;;;;;45.83;18.55;;;;;;;;;;5004935;28;20463;-72
2024/01/19 12:55:01;;;;;;;39.83;16.30;;;;;;;;;;4999942;28;20545;-73
2024/01/19 12:57:26;;;;;;;34.20;13.45;;;;;;;;;;4991502;28;20038;-73
2024/01/19 13:00:11;;;;;;;35.42;16.13;;;;;;;;;;4993490;28;20472;-73
2024/01/19 13:02:40;;;;;;;36.25;14.45;;;;;;;;;;4972474;28;20037;-72
2024/01/19 13:05:06;;;;;;;41.58;15.88;;;;;;;;;;4966823;28;20561;-72
2024/01/19 13:07:32;;;;;;;40.80;15.48;;;;;;;;;;4968699;28;20034;-73
2024/01/19 13:10:03;;;;;;;35.50;14.70;;;;;;;;;;4977336;28;20070;-74
2024/01/19 13:12:29;;;;;;;38.75;14.63;;;;;;;;;;4974266;28;20046;-73
2024/01/19 13:15:11;;;;;;;30.27;14.50;;;;;;;;;;4988336;28;20054;-73
2024/01/19 13:17:38;;;;;;;33.90;15.70;;;;;;;;;;4978237;28;20042;-73
2024/01/19 13:20:07;;;;;;;35.75;14.75;;;;;;;;;;4973496;28;20062;-73
2024/01/19 13:22:32;;;;;;;34.38;14.60;;;;;;;;;;4973899;28;20050;-73
2024/01/19 13:24:57;;;;;;;34.05;14.40;;;;;;;;;;4973784;28;20051;-73
2024/01/19 13:27:23;;;;;;;33.65;13.90;;;;;;;;;;4978720;28;20030;-73
2024/01/19 13:29:48;;;;;;;34.15;14.98;;;;;;;;;;4969093;28;20027;-73
2024/01/19 13:32:13;;;;;;;37.25;14.02;;;;;;;;;;4967786;28;20763;-73
2024/01/19 13:34:39;;;;;;;33.10;15.15;;;;;;;;;;4977285;28;20038;-73
2024/01/19 13:37:04;;;;;;;29.65;14.05;;;;;;;;;;4972870;28;20034;-73
2024/01/19 13:39:30;;;;;;;34.67;14.35;;;;;;;;;;4971989;28;20399;-73
2024/01/19 13:41:57;;;;;;;31.52;14.35;;;;;;;;;;4984318;28;20027;-73
2024/01/19 13:44:22;;;;;;;29.77;14.05;;;;;;;;;;4985483;28;20022;-73
2024/01/19 13:46:48;;;;;;;30.65;13.80;;;;;;;;;;4999889;28;20100;-73
2024/01/19 13:49:13;;;;;;;32.58;13.80;;;;;;;;;;5004046;28;20100;-73
2024/01/19 13:51:38;;;;;;;30.33;13.82;;;;;;;;;;5002809;28;20141;-72
2024/01/19 13:54:04;;;;;;;30.35;13.40;;;;;;;;;;5004046;28;20653;-72
2024/01/19 13:56:29;;;;;;;29.80;13.40;;;;;;;;;;5004122;28;20089;-73
2024/01/19 13:58:55;;;;;;;29.50;14.27;;;;;;;;;;5002383;28;20557;-73
2024/01/19 14:01:21;;;;;;;32.17;13.82;;;;;;;;;;4992571;28;20060;-73
2024/01/19 14:03:48;;;;;;;32.00;13.98;;;;;;;;;;4996182;28;20034;-73
2024/01/19 14:06:15;;;;;;;30.92;14.07;;;;;;;;;;4992192;28;20512;-73
2024/01/19 14:08:43;;;;;;;33.20;13.48;;;;;;;;;;4994168;28;20030;-73
2024/01/19 14:11:09;;;;;;;28.77;13.52;;;;;;;;;;4993894;28;20092;-73
2024/01/19 14:13:35;;;;;;;29.80;13.05;;;;;;;;;;4996542;28;20061;-73
2024/01/19 14:16:00;;;;;;;27.38;13.48;;;;;;;;;;4996500;28;20046;-73